Time;durP1;ratioP1;P1;durP2;ratioP2;P2;SDS_P1;SDS_P2;PMS_P1;PMS_P2;Temp;Humidity;BMP_temperature;BMP_pressure;BME280_temperature;BME280_humidity;BME280_pressure;Samples;Min_cycle;Max_cycle;Signal;HPM_P1;HPM_P2
2023/07/02 00:02:27;;;;;;;6;5.2;;;;;;;;;;;;;
2023/07/02 00:04:56;;;;;;;6.4;5.5;;;;;;;;;;;;;
2023/07/02 00:07:25;;;;;;;7.3;5.3;;;;;;;;;;;;;
2023/07/02 00:09:55;;;;;;;6.5;5.3;;;;;;;;;;;;;
2023/07/02 00:12:24;;;;;;;6.1;5.5;;;;;;;;;;;;;
2023/07/02 00:14:53;;;;;;;6.3;5.4;;;;;;;;;;;;;
2023/07/02 00:17:24;;;;;;;7.7;5.9;;;;;;;;;;;;;
2023/07/02 00:19:53;;;;;;;8.3;5.2;;;;;;;;;;;;;
2023/07/02 00:22:21;;;;;;;7.4;5.6;;;;;;;;;;;;;
2023/07/02 00:24:51;;;;;;;6.2;5.1;;;;;;;;;;;;;
2023/07/02 00:27:20;;;;;;;6.3;5.4;;;;;;;;;;;;;
2023/07/02 00:29:49;;;;;;;8.6;5.5;;;;;;;;;;;;;
2023/07/02 00:32:18;;;;;;;7.3;5.2;;;;;;;;;;;;;
2023/07/02 00:34:47;;;;;;;7.1;5.2;;;;;;;;;;;;;
2023/07/02 00:37:15;;;;;;;6.4;5.5;;;;;;;;;;;;;
2023/07/02 00:39:44;;;;;;;6.4;5.3;;;;;;;;;;;;;
2023/07/02 00:42:13;;;;;;;5.9;5.2;;;;;;;;;;;;;
2023/07/02 00:44:40;;;;;;;6.4;5.3;;;;;;;;;;;;;
2023/07/02 00:47:10;;;;;;;6.4;5.7;;;;;;;;;;;;;
2023/07/02 00:49:39;;;;;;;5.9;5.3;;;;;;;;;;;;;
2023/07/02 00:52:07;;;;;;;5.9;5.2;;;;;;;;;;;;;
2023/07/02 00:54:36;;;;;;;8.9;5.7;;;;;;;;;;;;;
2023/07/02 00:57:05;;;;;;;7.4;5.7;;;;;;;;;;;;;
2023/07/02 00:59:51;;;;;;;6.1;5.1;;;;;;;;;;;;;
2023/07/02 01:02:10;;;;;;;8;5.7;;;;;;;;;;;;;
2023/07/02 01:04:39;;;;;;;5.9;5.3;;;;;;;;;;;;;
2023/07/02 01:07:09;;;;;;;7.9;5.4;;;;;;;;;;;;;
2023/07/02 01:09:39;;;;;;;6.5;5.2;;;;;;;;;;;;;
2023/07/02 01:12:09;;;;;;;6.8;5;;;;;;;;;;;;;
2023/07/02 01:14:59;;;;;;;6.7;5.1;;;;;;;;;;;;;
2023/07/02 01:17:28;;;;;;;7.4;5.6;;;;;;;;;;;;;
2023/07/02 01:19:58;;;;;;;7.2;5.7;;;;;;;;;;;;;
2023/07/02 01:22:27;;;;;;;8.4;6;;;;;;;;;;;;;
2023/07/02 01:24:56;;;;;;;6.1;5.3;;;;;;;;;;;;;
2023/07/02 01:27:27;;;;;;;6.5;5.3;;;;;;;;;;;;;
2023/07/02 01:29:56;;;;;;;6.1;5.4;;;;;;;;;;;;;
2023/07/02 01:32:31;;;;;;;6.1;5.5;;;;;;;;;;;;;
2023/07/02 01:35:00;;;;;;;7.9;5.9;;;;;;;;;;;;;
2023/07/02 01:37:37;;;;;;;6.6;5.8;;;;;;;;;;;;;
2023/07/02 01:40:03;;;;;;;6.9;5.9;;;;;;;;;;;;;
2023/07/02 01:42:38;;;;;;;6.3;5.3;;;;;;;;;;;;;
2023/07/02 01:45:07;;;;;;;7.2;5.8;;;;;;;;;;;;;
2023/07/02 01:47:37;;;;;;;7.1;5.7;;;;;;;;;;;;;
2023/07/02 01:50:06;;;;;;;9.3;6;;;;;;;;;;;;;
2023/07/02 01:52:35;;;;;;;6.8;5.8;;;;;;;;;;;;;
2023/07/02 01:55:03;;;;;;;7;5.8;;;;;;;;;;;;;
2023/07/02 01:57:31;;;;;;;9.3;6.4;;;;;;;;;;;;;
2023/07/02 02:00:00;;;;;;;6.6;5.4;;;;;;;;;;;;;
2023/07/02 02:02:29;;;;;;;8.2;5.4;;;;;;;;;;;;;
2023/07/02 02:05:03;;;;;;;6.9;5.6;;;;;;;;;;;;;
2023/07/02 02:07:32;;;;;;;7;5.3;;;;;;;;;;;;;
2023/07/02 02:10:04;;;;;;;6.5;5.6;;;;;;;;;;;;;
2023/07/02 02:12:30;;;;;;;6.7;5.4;;;;;;;;;;;;;
2023/07/02 02:15:22;;;;;;;6.7;5.2;;;;;;;;;;;;;
2023/07/02 02:17:49;;;;;;;7.2;5.5;;;;;;;;;;;;;
2023/07/02 02:20:19;;;;;;;6;5.3;;;;;;;;;;;;;
2023/07/02 02:22:50;;;;;;;7.3;5.5;;;;;;;;;;;;;
2023/07/02 02:25:21;;;;;;;8.3;5.5;;;;;;;;;;;;;
2023/07/02 02:27:50;;;;;;;5.7;5.1;;;;;;;;;;;;;
2023/07/02 02:30:15;;;;;;;6;5.2;;;;;;;;;;;;;
2023/07/02 02:32:46;;;;;;;6.8;5.5;;;;;;;;;;;;;
2023/07/02 02:35:12;;;;;;;7.9;5.6;;;;;;;;;;;;;
2023/07/02 02:37:38;;;;;;;6.3;5.3;;;;;;;;;;;;;
2023/07/02 02:40:05;;;;;;;6.9;4.9;;;;;;;;;;;;;
2023/07/02 02:42:30;;;;;;;6;4.9;;;;;;;;;;;;;
2023/07/02 02:44:56;;;;;;;6.2;5.5;;;;;;;;;;;;;
2023/07/02 02:47:21;;;;;;;5.8;5;;;;;;;;;;;;;
2023/07/02 02:49:49;;;;;;;6.9;5;;;;;;;;;;;;;
2023/07/02 02:52:14;;;;;;;6.1;5;;;;;;;;;;;;;
2023/07/02 02:54:42;;;;;;;5.6;5;;;;;;;;;;;;;
2023/07/02 02:57:07;;;;;;;5.4;4.7;;;;;;;;;;;;;
2023/07/02 02:59:34;;;;;;;5.6;4.8;;;;;;;;;;;;;
2023/07/02 03:02:00;;;;;;;6.9;4.6;;;;;;;;;;;;;
2023/07/02 03:04:26;;;;;;;5.4;4.3;;;;;;;;;;;;;
2023/07/02 03:06:52;;;;;;;6.3;5.4;;;;;;;;;;;;;
2023/07/02 03:09:17;;;;;;;6.3;4.8;;;;;;;;;;;;;
2023/07/02 03:11:47;;;;;;;5;4.5;;;;;;;;;;;;;
2023/07/02 03:14:12;;;;;;;5.7;4.4;;;;;;;;;;;;;
2023/07/02 03:17:05;;;;;;;6.2;4.6;;;;;;;;;;;;;
2023/07/02 03:19:24;;;;;;;4.8;4.3;;;;;;;;;;;;;
2023/07/02 03:21:55;;;;;;;6.1;5.1;;;;;;;;;;;;;
2023/07/02 03:24:24;;;;;;;6.7;4.9;;;;;;;;;;;;;
2023/07/02 03:26:49;;;;;;;5.1;4.6;;;;;;;;;;;;;
2023/07/02 03:29:19;;;;;;;5.9;4.3;;;;;;;;;;;;;
2023/07/02 03:31:42;;;;;;;7;5.1;;;;;;;;;;;;;
2023/07/02 03:34:10;;;;;;;6.5;4.9;;;;;;;;;;;;;
2023/07/02 03:36:35;;;;;;;5.1;4.6;;;;;;;;;;;;;
2023/07/02 03:39:02;;;;;;;5.5;5;;;;;;;;;;;;;
2023/07/02 03:41:27;;;;;;;5.3;4.8;;;;;;;;;;;;;
2023/07/02 03:43:54;;;;;;;5.4;4.8;;;;;;;;;;;;;
2023/07/02 03:46:19;;;;;;;6.1;5;;;;;;;;;;;;;
2023/07/02 03:48:47;;;;;;;6.7;5.3;;;;;;;;;;;;;
2023/07/02 03:51:14;;;;;;;5.8;5.2;;;;;;;;;;;;;
2023/07/02 03:53:37;;;;;;;6;5.2;;;;;;;;;;;;;
2023/07/02 03:56:04;;;;;;;7.1;5.3;;;;;;;;;;;;;
2023/07/02 03:58:29;;;;;;;6.9;4.6;;;;;;;;;;;;;
2023/07/02 04:02:44;;;;;;;4.9;4.4;;;;;;;16.84;100;933.8345;;;;
2023/07/02 04:05:10;;;;;;;5;4.4;;;;;;;16.91;100;933.8911;;;;
2023/07/02 04:07:40;;;;;;;6.1;4.4;;;;;;;16.92;100;933.9263;;;;
2023/07/02 04:10:15;;;;;;;4.4;4;;;;;;;16.98;100;933.9225;;;;
2023/07/02 04:12:46;;;;;;;5.1;4;;;;;;;16.93;100;933.8931;;;;
2023/07/02 04:15:18;;;;;;;5.6;3.9;;;;;;;17.04;100;934.0059;;;;
2023/07/02 04:17:46;;;;;;;4;3.6;;;;;;;17.11;100;933.9592;;;;
2023/07/02 04:20:11;;;;;;;5.4;3.4;;;;;;;17.14;99.95898;934.0753;;;;
2023/07/02 04:22:43;;;;;;;7.1;4;;;;;;;17.15;100;934.0494;;;;
2023/07/02 04:25:14;;;;;;;4.6;3.4;;;;;;;17.12;99.98926;934.1392;;;;
2023/07/02 04:27:46;;;;;;;4.4;3.2;;;;;;;17.12;99.07129;934.1409;;;;
2023/07/02 04:30:13;;;;;;;3.5;3.1;;;;;;;17.07;98.88574;934.2056;;;;
2023/07/02 04:32:39;;;;;;;3.7;3.4;;;;;;;17.14;98.32227;934.3206;;;;
2023/07/02 04:35:04;;;;;;;3.9;3.3;;;;;;;17.14;98.70508;934.3014;;;;
2023/07/02 04:37:30;;;;;;;3.6;2.9;;;;;;;17.07;98.40039;934.3365;;;;
2023/07/02 04:40:03;;;;;;;3.1;2.7;;;;;;;17.03;99.15527;934.3569;;;;
2023/07/02 04:42:37;;;;;;;3.4;2.7;;;;;;;16.97;99.60449;934.3772;;;;
2023/07/02 04:45:03;;;;;;;3.3;2.7;;;;;;;17;99.86816;934.4263;;;;
2023/07/02 04:47:32;;;;;;;2.9;2.6;;;;;;;16.85;100;934.3016;;;;
2023/07/02 04:50:02;;;;;;;3.7;2.7;;;;;;;16.85;100;934.3983;;;;
2023/07/02 04:52:28;;;;;;;2.9;2.6;;;;;;;16.92;100;934.3773;;;;
2023/07/02 04:54:53;;;;;;;2.8;2.2;;;;;;;16.96;100;934.4216;;;;
2023/07/02 04:57:18;;;;;;;3;2.3;;;;;;;16.97;100;934.4109;;;;
2023/07/02 04:59:50;;;;;;;2.4;2.2;;;;;;;16.94;100;934.4107;;;;
2023/07/02 05:02:16;;;;;;;3.2;2.4;;;;;;;16.9;100;934.4543;;;;
2023/07/02 05:04:44;;;;;;;2.6;2.3;;;;;;;16.9;100;934.4608;;;;
2023/07/02 05:07:09;;;;;;;2.4;2.2;;;;;;;17;100;934.4055;;;;
2023/07/02 05:09:39;;;;;;;2;1.9;;;;;;;17.03;100;934.5002;;;;
2023/07/02 05:12:10;;;;;;;2.2;2;;;;;;;17.11;99.7207;934.4435;;;;
2023/07/02 05:14:36;;;;;;;2.7;2.1;;;;;;;17.11;99.03711;934.4886;;;;
2023/07/02 05:17:15;;;;;;;2.1;1.9;;;;;;;17.07;99.10547;934.4068;;;;
2023/07/02 05:19:40;;;;;;;2.1;1.9;;;;;;;17.06;98.56055;934.4961;;;;
2023/07/02 05:22:14;;;;;;;2.4;1.8;;;;;;;17.19;98.95996;934.4347;;;;
2023/07/02 05:24:43;;;;;;;2.4;2.2;;;;;;;17.14;99.6709;934.4677;;;;
2023/07/02 05:27:13;;;;;;;1.8;1.7;;;;;;;17.27;99.41016;934.4942;;;;
2023/07/02 05:29:40;;;;;;;1.9;1.8;;;;;;;17.35;99.53027;934.4949;;;;
2023/07/02 05:32:10;;;;;;;1.7;1.6;;;;;;;17.37;98.43262;934.537;;;;
2023/07/02 05:34:37;;;;;;;2.8;1.7;;;;;;;17.46;98.25586;934.5377;;;;
2023/07/02 05:37:08;;;;;;;1.8;1.6;;;;;;;17.53;96.62402;934.5692;;;;
2023/07/02 05:39:41;;;;;;;2.2;1.5;;;;;;;17.47;97.26172;934.5117;;;;
2023/07/02 05:42:12;;;;;;;1.9;1.6;;;;;;;17.54;96.56836;934.5377;;;;
2023/07/02 05:44:48;;;;;;;1.8;1.7;;;;;;;17.61;97.34766;934.5584;;;;
2023/07/02 05:47:21;;;;;;;2.1;1.9;;;;;;;17.66;97.3623;934.5776;;;;
2023/07/02 05:49:54;;;;;;;1.5;1.4;;;;;;;17.72;97.08203;934.5242;;;;
2023/07/02 05:52:30;;;;;;;1.6;1.5;;;;;;;17.77;96.37598;934.6469;;;;
2023/07/02 05:55:02;;;;;;;1.7;1.6;;;;;;;17.75;96.24219;934.6877;;;;
2023/07/02 05:57:34;;;;;;;2.5;1.7;;;;;;;17.53;96.11426;934.6415;;;;
2023/07/02 06:00:00;;;;;;;2.4;1.6;;;;;;;17.59;96.75391;934.7094;;;;
2023/07/02 06:02:28;;;;;;;2.1;1.5;;;;;;;17.65;96.42969;934.735;;;;
2023/07/02 06:04:53;;;;;;;1.3;1.2;;;;;;;17.69;94.4668;934.6828;;;;
2023/07/02 06:07:19;;;;;;;1.3;1.2;;;;;;;17.82;93.77344;934.6871;;;;
2023/07/02 06:09:52;;;;;;;1.5;1.4;;;;;;;17.95;93.95215;934.7098;;;;
2023/07/02 06:12:17;;;;;;;1.4;1.3;;;;;;;18.04;93.73828;934.7344;;;;
2023/07/02 06:14:47;;;;;;;1.7;1.6;;;;;;;18.22;92.94043;934.7073;;;;
2023/07/02 06:17:15;;;;;;;1.2;1.1;;;;;;;17.98;91.57617;934.743;;;;
2023/07/02 06:19:40;;;;;;;1.4;1.3;;;;;;;18.07;92.68945;934.7659;;;;
2023/07/02 06:22:05;;;;;;;1.5;1.4;;;;;;;18.06;92.2207;934.6292;;;;
2023/07/02 06:24:32;;;;;;;1.6;1.5;;;;;;;18.17;92.4082;934.665;;;;
2023/07/02 06:26:57;;;;;;;2.1;1.4;;;;;;;18.23;93.55859;934.7501;;;;
2023/07/02 06:29:24;;;;;;;1.9;1.6;;;;;;;18.48;95.19336;934.7285;;;;
2023/07/02 06:31:50;;;;;;;1.4;1.3;;;;;;;18.71;92.74121;934.6736;;;;
2023/07/02 06:34:17;;;;;;;1.4;1.1;;;;;;;18.82;91.88086;934.6789;;;;
2023/07/02 06:36:43;;;;;;;1.4;1.3;;;;;;;18.79;88.80176;934.7119;;;;
2023/07/02 06:39:14;;;;;;;1.8;1.2;;;;;;;18.92;88.49023;934.6334;;;;
2023/07/02 06:41:39;;;;;;;1.7;1.6;;;;;;;18.97;88.81543;934.6392;;;;
2023/07/02 06:44:11;;;;;;;1.6;1.5;;;;;;;19.38;90.27148;934.6763;;;;
2023/07/02 06:46:36;;;;;;;1.6;1.4;;;;;;;19.73;88.30371;934.6453;;;;
2023/07/02 06:49:02;;;;;;;1.8;1.5;;;;;;;20;86.62109;934.6852;;;;
2023/07/02 06:51:29;;;;;;;1.5;1.4;;;;;;;20.02;84.3252;934.6138;;;;
2023/07/02 06:53:53;;;;;;;1.4;1.3;;;;;;;19.98;84.25879;934.7134;;;;
2023/07/02 06:56:19;;;;;;;1.8;1.4;;;;;;;20.16;84.10645;934.6778;;;;
2023/07/02 06:58:49;;;;;;;1.6;1.5;;;;;;;20.2;83.25098;934.7324;;;;
2023/07/02 07:01:20;;;;;;;1.6;1.2;;;;;;;20.29;82.51953;934.7596;;;;
2023/07/02 07:03:50;;;;;;;1.9;1.5;;;;;;;20.14;81.7666;934.7595;;;;
2023/07/02 07:06:17;;;;;;;1.6;1.4;;;;;;;20.16;80.9082;934.8201;;;;
2023/07/02 07:08:41;;;;;;;2.7;1.5;;;;;;;20.17;81.57715;934.7503;;;;
2023/07/02 07:11:06;;;;;;;1.6;1.4;;;;;;;19.94;79.55078;934.8061;;;;
2023/07/02 07:13:39;;;;;;;1.5;1.4;;;;;;;20;81.67188;934.8422;;;;
2023/07/02 07:16:07;;;;;;;1.4;1.3;;;;;;;20.12;79.82813;934.7972;;;;
2023/07/02 07:18:33;;;;;;;1.5;1.4;;;;;;;20.06;83.45703;934.8091;;;;
2023/07/02 07:20:58;;;;;;;1.5;1.4;;;;;;;19.94;84.1582;934.7827;;;;
2023/07/02 07:23:29;;;;;;;1.4;1.3;;;;;;;19.9;84.26855;934.7839;;;;
2023/07/02 07:26:00;;;;;;;1.5;1.4;;;;;;;19.98;84.11914;934.7991;;;;
2023/07/02 07:28:48;;;;;;;1.6;1.5;;;;;;;20.13;82.17383;934.7188;;;;
2023/07/02 07:31:16;;;;;;;1.5;1.4;;;;;;;20.34;82.50586;934.7329;;;;
2023/07/02 07:33:41;;;;;;;1.9;1.4;;;;;;;20.21;81.47852;934.7684;;;;
2023/07/02 07:36:12;;;;;;;1.4;1.3;;;;;;;20.37;81.62402;934.752;;;;
2023/07/02 07:38:41;;;;;;;1.5;1.4;;;;;;;20.56;81.35449;934.7123;;;;
2023/07/02 07:41:06;;;;;;;1.3;1.2;;;;;;;20.83;79.83789;934.6719;;;;
2023/07/02 07:43:31;;;;;;;1.3;1.2;;;;;;;20.73;79.54199;934.6822;;;;
2023/07/02 07:46:03;;;;;;;1.3;1.2;;;;;;;20.71;81.04395;934.6814;;;;
2023/07/02 07:48:33;;;;;;;1.3;1.2;;;;;;;20.49;79.91797;934.7188;;;;
2023/07/02 07:51:01;;;;;;;1.5;1.4;;;;;;;20.96;79.2998;934.7399;;;;
2023/07/02 07:53:27;;;;;;;1.8;1.4;;;;;;;21.52;76.14648;934.7249;;;;
2023/07/02 07:55:55;;;;;;;1.4;1.3;;;;;;;21.74;74.18066;934.6852;;;;
2023/07/02 07:58:20;;;;;;;1.6;1.3;;;;;;;21.42;73.26074;934.7319;;;;
2023/07/02 08:00:48;;;;;;;1.7;1.2;;;;;;;21.55;75.50781;934.7547;;;;
2023/07/02 08:03:17;;;;;;;1.7;1.4;;;;;;;20.94;74.03516;934.7228;;;;
2023/07/02 08:05:42;;;;;;;2;1.2;;;;;;;21.09;75.28906;934.7322;;;;
2023/07/02 08:08:10;;;;;;;1.3;1.2;;;;;;;20.81;77.97852;934.7683;;;;
2023/07/02 08:10:41;;;;;;;1.5;1.2;;;;;;;20.68;79.21582;934.7244;;;;
2023/07/02 08:13:13;;;;;;;1.7;1.3;;;;;;;20.81;79.13379;934.7053;;;;
2023/07/02 08:15:46;;;;;;;1.3;1.2;;;;;;;20.69;75.82715;934.6636;;;;
2023/07/02 08:18:13;;;;;;;1.2;1.1;;;;;;;21.13;77.92676;934.7965;;;;
2023/07/02 08:20:39;;;;;;;1.4;1.3;;;;;;;21.5;75.82617;934.7154;;;;
2023/07/02 08:23:04;;;;;;;1.4;1.3;;;;;;;21.8;75.29102;934.742;;;;
2023/07/02 08:25:34;;;;;;;1.5;1.4;;;;;;;21.95;73.99316;934.7106;;;;
2023/07/02 08:28:01;;;;;;;2.3;1.3;;;;;;;21.87;72.52637;934.7794;;;;
2023/07/02 08:30:26;;;;;;;1.4;1.3;;;;;;;22.18;75.09961;934.7753;;;;
2023/07/02 08:32:57;;;;;;;1.4;1.3;;;;;;;22.51;70.97754;934.7722;;;;
2023/07/02 08:35:29;;;;;;;1.4;1.3;;;;;;;22.9;67.71582;934.7377;;;;
2023/07/02 08:37:54;;;;;;;1.4;1.3;;;;;;;22.85;66.90918;934.6456;;;;
2023/07/02 08:40:30;;;;;;;1.6;1.5;;;;;;;23.06;68.54102;934.7054;;;;
2023/07/02 08:43:02;;;;;;;2.1;1.5;;;;;;;22.77;66.62793;934.7012;;;;
2023/07/02 08:45:28;;;;;;;2;1.7;;;;;;;22.93;68.23828;934.6898;;;;
2023/07/02 08:48:00;;;;;;;2.9;1.6;;;;;;;23.28;66.44531;934.7222;;;;
2023/07/02 08:50:28;;;;;;;2.2;1.7;;;;;;;22.59;67.79785;934.7004;;;;
2023/07/02 08:52:53;;;;;;;1.9;1.7;;;;;;;22.54;66.82715;934.7303;;;;
2023/07/02 08:55:29;;;;;;;2.7;1.8;;;;;;;22.49;68.39258;934.7932;;;;
2023/07/02 08:58:02;;;;;;;2.2;1.9;;;;;;;22.71;65.33887;934.7735;;;;
2023/07/02 09:00:36;;;;;;;1.9;1.7;;;;;;;22.46;67.67285;934.8455;;;;
2023/07/02 09:02:57;;;;;;;2.1;1.8;;;;;;;22.42;69.15723;934.8233;;;;
2023/07/02 09:05:26;;;;;;;2.3;2.1;;;;;;;22.15;71.11914;934.8951;;;;
2023/07/02 09:07:56;;;;;;;1.8;1.7;;;;;;;22.07;65.57422;934.8292;;;;
2023/07/02 09:10:21;;;;;;;2.4;1.9;;;;;;;21.99;66.65234;934.7953;;;;
2023/07/02 09:12:56;;;;;;;2.5;2.1;;;;;;;21.3;70.72559;934.7511;;;;
2023/07/02 09:15:29;;;;;;;2.8;2.3;;;;;;;20.95;78.91406;934.7726;;;;
2023/07/02 09:18:00;;;;;;;2.4;2.1;;;;;;;21.45;76.14648;934.7302;;;;
2023/07/02 09:20:24;;;;;;;3.2;2.2;;;;;;;21.84;73.51855;934.7828;;;;
2023/07/02 09:22:59;;;;;;;5.6;2.3;;;;;;;21.84;73.17871;934.7385;;;;
2023/07/02 09:25:24;;;;;;;3.7;2.8;;;;;;;21.62;73.65625;934.7634;;;;
2023/07/02 09:27:52;;;;;;;3.6;2.8;;;;;;;22.07;67.56543;934.7169;;;;
2023/07/02 09:30:19;;;;;;;3;2.4;;;;;;;22.36;67.79688;934.7108;;;;
2023/07/02 09:32:44;;;;;;;4.6;2.2;;;;;;;22.9;68.93848;934.7122;;;;
2023/07/02 09:35:19;;;;;;;4.1;2.6;;;;;;;23.61;63.94238;934.7489;;;;
2023/07/02 09:37:53;;;;;;;3.3;2.3;;;;;;;23.74;61.99707;934.7877;;;;
2023/07/02 09:40:25;;;;;;;3.8;2.6;;;;;;;23.83;64.09082;934.7263;;;;
2023/07/02 09:42:52;;;;;;;3.2;2.8;;;;;;;23.38;62.11035;934.7761;;;;
2023/07/02 09:45:14;;;;;;;4.2;2.9;;;;;;;22.89;66.17676;934.7045;;;;
2023/07/02 09:47:39;;;;;;;4.2;2.9;;;;;;;23.13;70.19531;934.6788;;;;
2023/07/02 09:50:13;;;;;;;3.6;2.9;;;;;;;23.01;64.26758;934.7263;;;;
2023/07/02 09:52:42;;;;;;;3.4;2.5;;;;;;;23.44;63.4248;934.7434;;;;
2023/07/02 09:55:07;;;;;;;3.3;2.6;;;;;;;22.86;64.93848;934.7093;;;;
2023/07/02 09:57:33;;;;;;;5.1;2.7;;;;;;;23.33;61.68066;934.7547;;;;
2023/07/02 09:59:59;;;;;;;3.3;2.6;;;;;;;23.55;63.33398;934.6939;;;;
2023/07/02 10:02:24;;;;;;;3.9;2.7;;;;;;;24.23;60.76855;934.7505;;;;
2023/07/02 10:04:54;;;;;;;3.8;2.8;;;;;;;24.33;61.50098;934.6833;;;;
2023/07/02 10:07:14;;;;;;;3.7;2.6;;;;;;;24.05;61.04004;934.7328;;;;
2023/07/02 10:09:46;;;;;;;3.8;3.2;;;;;;;23.85;60.48145;934.735;;;;
2023/07/02 10:12:19;;;;;;;4.3;3.1;;;;;;;23.04;63.33203;934.7064;;;;
2023/07/02 10:14:51;;;;;;;4.5;3.3;;;;;;;23.55;62.52246;934.7816;;;;
2023/07/02 10:17:21;;;;;;;3.6;2.9;;;;;;;23;63.51465;934.6819;;;;
2023/07/02 10:19:46;;;;;;;12;4.8;;;;;;;22.31;65.57324;934.69;;;;
2023/07/02 10:22:11;;;;;;;5.6;3.5;;;;;;;22.49;68.19238;934.7058;;;;
2023/07/02 10:24:38;;;;;;;6.7;4.1;;;;;;;23.43;64.04492;934.7375;;;;
2023/07/02 10:27:05;;;;;;;6.1;3.9;;;;;;;23.53;61.86133;934.7784;;;;
2023/07/02 10:29:30;;;;;;;9;4.9;;;;;;;23.29;63.9209;934.8118;;;;
2023/07/02 10:31:57;;;;;;;6.4;4.6;;;;;;;23.4;60.92578;934.7798;;;;
2023/07/02 10:34:22;;;;;;;6.2;4.4;;;;;;;23.32;65.6875;934.834;;;;
2023/07/02 10:36:51;;;;;;;7.8;4.8;;;;;;;22.91;66.48535;934.7785;;;;
2023/07/02 10:39:23;;;;;;;7;4.6;;;;;;;22.72;63.74414;934.8145;;;;
2023/07/02 10:41:49;;;;;;;9.4;5.2;;;;;;;22.57;63.6748;934.8744;;;;
2023/07/02 10:44:18;;;;;;;10;5.9;;;;;;;22.3;65.2793;934.8633;;;;
2023/07/02 10:47:56;;;;;;;9.7;5.5;;;;;;;22;66.01953;934.813;;;;
2023/07/02 10:50:27;;;;;;;8.1;5.3;;;;;;;21.48;67.83887;934.8279;;;;
2023/07/02 10:52:52;;;;;;;7.3;5.3;;;;;;;21.86;70.54492;934.8664;;;;
2023/07/02 10:55:22;;;;;;;10.9;6.9;;;;;;;22.37;63.36426;934.8525;;;;
2023/07/02 10:57:47;;;;;;;9.6;6.1;;;;;;;22.74;62.71289;934.8666;;;;
2023/07/02 11:00:17;;;;;;;9.7;6.5;;;;;;;22.77;63.69238;934.8594;;;;
2023/07/02 11:02:42;;;;;;;10;6.4;;;;;;;22.68;61.80176;934.8822;;;;
2023/07/02 11:05:16;;;;;;;12.7;6.6;;;;;;;22.64;63.13477;934.8675;;;;
2023/07/02 11:07:43;;;;;;;9.7;6.9;;;;;;;22.55;62.75781;934.8918;;;;
2023/07/02 11:10:08;;;;;;;11.1;6.3;;;;;;;22.69;63.36426;934.8475;;;;
2023/07/02 11:12:38;;;;;;;9.7;6.2;;;;;;;22.78;62.97754;934.8412;;;;
2023/07/02 11:15:03;;;;;;;7.4;5.7;;;;;;;22.68;65.53418;934.8406;;;;
2023/07/02 11:17:34;;;;;;;8.6;6;;;;;;;22.75;64.51172;934.8539;;;;
2023/07/02 11:19:59;;;;;;;9.4;5.7;;;;;;;22.68;63.82227;934.9346;;;;
2023/07/02 11:22:24;;;;;;;9;6.3;;;;;;;22.73;63.48633;934.9158;;;;
2023/07/02 11:24:53;;;;;;;8.8;6.2;;;;;;;22.64;62.77051;934.9227;;;;
2023/07/02 11:27:18;;;;;;;9;5.7;;;;;;;22.23;65.47949;934.9636;;;;
2023/07/02 11:29:47;;;;;;;7.4;5.1;;;;;;;22.22;65.51465;934.9472;;;;
2023/07/02 11:32:19;;;;;;;8;5.8;;;;;;;22.42;65.70703;934.9266;;;;
2023/07/02 11:34:48;;;;;;;7;5.3;;;;;;;22.52;63.96191;935.0047;;;;
2023/07/02 11:37:13;;;;;;;7.9;5.7;;;;;;;22.63;64.34277;934.9857;;;;
2023/07/02 11:39:41;;;;;;;9.6;5.6;;;;;;;22.42;65.09668;934.95;;;;
2023/07/02 11:42:09;;;;;;;7.7;5.4;;;;;;;22.84;64.57227;934.8853;;;;
2023/07/02 11:44:39;;;;;;;8.4;5.3;;;;;;;22.9;63.05273;934.8839;;;;
2023/07/02 11:47:04;;;;;;;7.2;4.8;;;;;;;23.16;63.51367;934.8191;;;;
2023/07/02 11:49:32;;;;;;;7.5;4.7;;;;;;;23.52;61.54199;934.8983;;;;
2023/07/02 11:51:57;;;;;;;7.2;4.8;;;;;;;23.73;60.44238;934.8711;;;;
2023/07/02 11:55:20;;;;;;;6.9;4.6;;;;;;;23.93;56.58496;934.8984;;;;
2023/07/02 11:57:46;;;;;;;6.4;4.5;;;;;;;23.86;58.37598;934.8605;;;;
2023/07/02 12:00:10;;;;;;;6.7;4.7;;;;;;;23.56;58.71387;934.8996;;;;
2023/07/02 12:02:41;;;;;;;6.2;4.6;;;;;;;23.35;58.9082;934.8975;;;;
2023/07/02 12:05:13;;;;;;;6.8;4.6;;;;;;;23.35;58.75586;934.9202;;;;
2023/07/02 12:07:40;;;;;;;6.4;4.6;;;;;;;23.46;59.37109;934.8497;;;;
2023/07/02 12:10:05;;;;;;;5.6;4.1;;;;;;;23.73;57.74707;934.8834;;;;
2023/07/02 12:12:30;;;;;;;8.2;4.7;;;;;;;23.88;57.2373;934.7773;;;;
2023/07/02 12:14:57;;;;;;;5.5;4.2;;;;;;;24.08;57.32227;934.8306;;;;
2023/07/02 12:17:22;;;;;;;6;4.2;;;;;;;24.35;57.67285;934.8062;;;;
2023/07/02 12:19:52;;;;;;;6;4.5;;;;;;;24.57;57.55078;934.7805;;;;
2023/07/02 12:22:18;;;;;;;5.7;4.6;;;;;;;24.2;58.17285;934.7649;;;;
2023/07/02 12:24:45;;;;;;;4.7;3.6;;;;;;;24.59;55.19531;934.7103;;;;
2023/07/02 12:27:10;;;;;;;6.8;4.2;;;;;;;24.8;54.37109;934.6716;;;;
2023/07/02 12:29:37;;;;;;;5.5;3.9;;;;;;;25;54.01758;934.7358;;;;
2023/07/02 12:32:02;;;;;;;5.5;4.2;;;;;;;24.58;54.58008;934.7241;;;;
2023/07/02 12:34:31;;;;;;;5.7;3.8;;;;;;;24.51;54.74902;934.6884;;;;
2023/07/02 12:36:55;;;;;;;5.6;4;;;;;;;24.73;55.45996;934.6789;;;;
2023/07/02 12:39:20;;;;;;;4.9;3.9;;;;;;;24.48;54.83887;934.6436;;;;
2023/07/02 12:44:18;;;;;;;4.7;3.8;;;;;;;24.67;53.83691;934.6302;;;;
2023/07/02 12:46:48;;;;;;;5.1;3.3;;;;;;;24.78;53.3418;934.6183;;;;
2023/07/02 12:49:18;;;;;;;7.3;3.2;;;;;;;25.04;55.14355;934.5167;;;;
2023/07/02 12:51:46;;;;;;;5;3.8;;;;;;;25.25;53.63379;934.6136;;;;
2023/07/02 12:54:11;;;;;;;4.5;3.8;;;;;;;25.26;52.96387;934.5678;;;;
2023/07/02 12:56:38;;;;;;;6.3;4.2;;;;;;;25.11;57.08789;934.5463;;;;
2023/07/02 12:59:08;;;;;;;5.9;3.5;;;;;;;24.61;53.00391;934.576;;;;
2023/07/02 13:01:35;;;;;;;4.4;3.6;;;;;;;24.16;57.36719;934.5851;;;;
2023/07/02 13:04:03;;;;;;;5;4.1;;;;;;;24.25;58.49805;934.5561;;;;
2023/07/02 13:06:27;;;;;;;5.5;3.5;;;;;;;24;57.12402;934.6204;;;;
2023/07/02 13:08:57;;;;;;;5.7;3.7;;;;;;;24.1;55.91211;934.6392;;;;
2023/07/02 13:11:25;;;;;;;5.1;3.6;;;;;;;23.95;56.01074;934.639;;;;
2023/07/02 13:13:55;;;;;;;4.8;3.6;;;;;;;23.4;57.65723;934.5359;;;;
2023/07/02 13:16:27;;;;;;;5.8;3.7;;;;;;;23.18;58.93359;934.5255;;;;
2023/07/02 13:18:52;;;;;;;5.4;3.5;;;;;;;23.06;59.7041;934.514;;;;
2023/07/02 13:21:17;;;;;;;4.2;3.5;;;;;;;23.29;58.78223;934.5105;;;;
2023/07/02 13:23:46;;;;;;;6.3;3.8;;;;;;;23.72;57.78125;934.5027;;;;
2023/07/02 13:26:14;;;;;;;5;3.6;;;;;;;23.89;56.68652;934.4791;;;;
2023/07/02 13:28:40;;;;;;;5.4;3.5;;;;;;;23.95;58.30566;934.5262;;;;
2023/07/02 13:31:05;;;;;;;4.7;3.8;;;;;;;24.2;56.38379;934.4724;;;;
2023/07/02 13:33:30;;;;;;;5;4;;;;;;;24.38;55.67578;934.4681;;;;
2023/07/02 13:35:55;;;;;;;5.3;4;;;;;;;24.12;56.49121;934.4413;;;;
2023/07/02 13:38:25;;;;;;;5.2;3.8;;;;;;;24.12;56.37207;934.4686;;;;
2023/07/02 13:40:59;;;;;;;4.7;3.5;;;;;;;24.04;56.31641;934.4892;;;;
2023/07/02 13:43:35;;;;;;;5.5;3.9;;;;;;;24.12;57.06738;934.4986;;;;
2023/07/02 13:46:00;;;;;;;5.1;3.7;;;;;;;23.87;58.10645;934.4697;;;;
2023/07/02 13:48:28;;;;;;;5.3;3.7;;;;;;;24.18;56.35742;934.5011;;;;
2023/07/02 13:50:53;;;;;;;5;4;;;;;;;24.14;56.77637;934.4755;;;;
2023/07/02 13:53:18;;;;;;;5.7;3.9;;;;;;;24.24;56.14063;934.4261;;;;
2023/07/02 13:55:46;;;;;;;4.3;3.6;;;;;;;24.48;56.45313;934.4329;;;;
2023/07/02 13:58:11;;;;;;;4.8;3.4;;;;;;;24.48;56.90234;934.488;;;;
2023/07/02 14:00:37;;;;;;;5.7;4;;;;;;;24.74;54.0459;934.4979;;;;
2023/07/02 14:03:05;;;;;;;5.3;3.8;;;;;;;25.05;54.45996;934.4731;;;;
2023/07/02 14:05:30;;;;;;;5.8;3.8;;;;;;;24.89;54.11133;934.4587;;;;
2023/07/02 14:08:00;;;;;;;4.4;3.8;;;;;;;24.96;55.79492;934.4272;;;;
2023/07/02 14:10:27;;;;;;;4.6;3.8;;;;;;;24.61;54.66504;934.476;;;;
2023/07/02 14:12:56;;;;;;;8;4.1;;;;;;;24.7;56.82227;934.4805;;;;
2023/07/02 14:15:30;;;;;;;4.4;3.6;;;;;;;24.62;55.43359;934.472;;;;
2023/07/02 14:18:00;;;;;;;4;3.5;;;;;;;24.56;54.79004;934.4614;;;;
2023/07/02 14:20:30;;;;;;;4.5;3.6;;;;;;;24.49;55.9834;934.4194;;;;
2023/07/02 14:22:59;;;;;;;5.3;4.2;;;;;;;24.42;57.49414;934.4322;;;;
2023/07/02 14:25:25;;;;;;;4.7;3.6;;;;;;;24.46;55.65039;934.4191;;;;
2023/07/02 14:27:55;;;;;;;6.5;4;;;;;;;24.44;59.30078;934.4194;;;;
2023/07/02 14:30:20;;;;;;;5.3;3.8;;;;;;;24.48;57.96191;934.4313;;;;
2023/07/02 14:32:52;;;;;;;5.4;3.8;;;;;;;24.52;57.69629;934.4638;;;;
2023/07/02 14:35:21;;;;;;;5.1;3.9;;;;;;;24.49;56.61914;934.478;;;;
2023/07/02 14:37:43;;;;;;;4.8;3.8;;;;;;;24.56;58.86816;934.4767;;;;
2023/07/02 14:40:17;;;;;;;4.7;3.6;;;;;;;24.43;59.14648;934.5303;;;;
2023/07/02 14:42:46;;;;;;;5.6;3.6;;;;;;;24.22;56.93848;934.4336;;;;
2023/07/02 14:45:18;;;;;;;5.1;3.6;;;;;;;24.22;59.29395;934.4059;;;;
2023/07/02 14:47:48;;;;;;;4.6;3.6;;;;;;;24.1;55.31152;934.4189;;;;
2023/07/02 14:50:13;;;;;;;4.6;3.5;;;;;;;24.15;58.37891;934.4589;;;;
2023/07/02 14:52:44;;;;;;;4.6;3.7;;;;;;;24.05;56.7998;934.5125;;;;
2023/07/02 14:55:16;;;;;;;4;3.4;;;;;;;24.31;57.54004;934.5368;;;;
2023/07/02 14:57:46;;;;;;;5.5;3.8;;;;;;;24.34;58.93359;934.4941;;;;
2023/07/02 15:00:18;;;;;;;4.7;3.8;;;;;;;24.18;60.7627;934.4565;;;;
2023/07/02 15:02:46;;;;;;;5.2;3.5;;;;;;;24.07;59.92285;934.5125;;;;
2023/07/02 15:05:13;;;;;;;5.3;3.6;;;;;;;24.18;58.77148;934.4932;;;;
2023/07/02 15:07:42;;;;;;;4.4;3.7;;;;;;;24.3;57.96289;934.4698;;;;
2023/07/02 15:10:07;;;;;;;5.3;3.6;;;;;;;24.33;57.15332;934.4309;;;;
2023/07/02 15:12:38;;;;;;;5.3;4.1;;;;;;;24.29;55.82813;934.4811;;;;
2023/07/02 15:15:12;;;;;;;5.6;4.1;;;;;;;24.12;56.60742;934.4937;;;;
2023/07/02 15:17:40;;;;;;;3.9;3.5;;;;;;;24.18;55.93262;934.5056;;;;
2023/07/02 15:20:12;;;;;;;5.3;3.3;;;;;;;24.16;58.34473;934.4623;;;;
2023/07/02 15:22:40;;;;;;;4.2;3.7;;;;;;;24.16;58.3916;934.5056;;;;
2023/07/02 15:25:05;;;;;;;4.3;3.4;;;;;;;24.2;56.83105;934.4529;;;;
2023/07/02 15:27:32;;;;;;;4.8;3.8;;;;;;;24.3;56.41992;934.425;;;;
2023/07/02 15:29:57;;;;;;;5;3.7;;;;;;;24.34;55.64648;934.4606;;;;
2023/07/02 15:32:27;;;;;;;4.9;3.9;;;;;;;24.25;55.6709;934.4891;;;;
2023/07/02 15:34:56;;;;;;;4.5;3.7;;;;;;;23.96;58.34277;934.4799;;;;
2023/07/02 15:37:20;;;;;;;6.6;4.5;;;;;;;23.92;57.61816;934.421;;;;
2023/07/02 15:39:51;;;;;;;4.9;3.7;;;;;;;23.94;57.44434;934.499;;;;
2023/07/02 15:42:16;;;;;;;4.9;3.8;;;;;;;24.06;56.96582;934.4706;;;;
2023/07/02 15:44:44;;;;;;;4.1;3.5;;;;;;;24.17;56.9209;934.4391;;;;
2023/07/02 15:47:14;;;;;;;4.2;3.6;;;;;;;24.09;57.08691;934.4431;;;;
2023/07/02 15:49:43;;;;;;;5.2;4.1;;;;;;;24.17;56.85059;934.4824;;;;
2023/07/02 15:52:11;;;;;;;10.7;7.5;;;;;;;23.8;56.08496;934.4167;;;;
2023/07/02 15:54:36;;;;;;;5.5;4.3;;;;;;;23.79;57.20215;934.4855;;;;